createdAt,value
2019-04-27T00:00:06.313Z,76.39
2019-04-27T00:01:10.537Z,76.48
2019-04-27T00:02:06.376Z,76.86
2019-04-27T00:03:06.350Z,76.77
2019-04-27T00:04:06.340Z,76.67
2019-04-27T00:05:06.356Z,77.34
2019-04-27T00:06:08.442Z,77.44
2019-04-27T00:07:06.390Z,76.77
2019-04-27T00:08:06.378Z,76.67
2019-04-27T00:09:07.568Z,76.77
2019-04-27T00:10:06.510Z,77.53
2019-04-27T00:11:08.659Z,76.64
2019-04-27T00:12:06.414Z,77.21
2019-04-27T00:13:06.573Z,77.30
2019-04-27T00:14:06.438Z,77.40
2019-04-27T00:15:06.449Z,77.50
2019-04-27T00:16:09.850Z,77.30
2019-04-27T00:17:06.465Z,77.30
2019-04-27T00:18:09.446Z,78.26
2019-04-27T00:19:06.622Z,78.74
2019-04-27T00:20:06.474Z,77.87
2019-04-27T00:21:06.572Z,78.64
2019-04-27T00:22:06.478Z,78.74
2019-04-27T00:23:06.483Z,77.69
2019-04-27T00:24:06.764Z,77.97
2019-04-27T00:25:06.560Z,78.07
2019-04-27T00:26:06.519Z,78.74
2019-04-27T00:27:06.806Z,78.64
2019-04-27T00:28:06.843Z,78.93
2019-04-27T00:29:06.548Z,78.55
2019-04-27T00:30:06.550Z,78.74
2019-04-27T00:31:06.554Z,78.60
2019-04-27T00:32:06.535Z,78.16
2019-04-27T00:33:06.570Z,78.55
2019-04-27T00:34:06.609Z,77.84
2019-04-27T00:35:06.571Z,78.60
2019-04-27T00:36:06.585Z,78.07
2019-04-27T00:37:06.590Z,78.93
2019-04-27T00:38:06.618Z,78.70
2019-04-27T00:39:06.685Z,78.41
2019-04-27T00:40:06.775Z,79.22
2019-04-27T00:41:06.640Z,79.36
2019-04-27T00:42:06.630Z,78.74
2019-04-27T00:43:06.638Z,78.51
2019-04-27T00:44:06.635Z,78.64
2019-04-27T00:45:06.672Z,77.94
2019-04-27T00:46:06.731Z,78.31
2019-04-27T00:47:06.702Z,78.60
2019-04-27T00:48:06.764Z,78.79
2019-04-27T00:49:06.681Z,77.94
2019-04-27T00:50:06.679Z,78.22
2019-04-27T00:51:06.904Z,78.70
2019-04-27T00:52:06.694Z,79.08
2019-04-27T00:53:06.718Z,79.36
2019-04-27T00:54:06.904Z,79.08
2019-04-27T00:55:06.793Z,78.99
2019-04-27T00:56:06.743Z,78.89
2019-04-27T00:57:06.769Z,78.89
2019-04-27T00:58:06.747Z,78.70
2019-04-27T00:59:06.858Z,78.60
2019-04-27T01:00:06.739Z,78.60
2019-04-27T01:01:06.762Z,79.27
2019-04-27T01:02:06.763Z,79.08
2019-04-27T01:03:06.760Z,79.08
2019-04-27T01:04:06.788Z,79.08
2019-04-27T01:05:06.790Z,79.36
2019-04-27T01:06:06.825Z,79.65
2019-04-27T01:07:06.793Z,79.65
2019-04-27T01:08:06.804Z,80.04
2019-04-27T01:09:06.875Z,80.61
2019-04-27T01:10:06.818Z,80.04
2019-04-27T01:11:06.829Z,79.85
2019-04-27T01:12:06.842Z,80.13
2019-04-27T01:13:07.037Z,80.22
2019-04-27T01:14:06.833Z,79.75
2019-04-27T01:15:06.839Z,79.65
2019-04-27T01:16:08.512Z,79.85
2019-04-27T01:17:08.493Z,79.27
2019-04-27T01:18:13.313Z,79.36
2019-04-27T01:19:08.447Z,79.31
2019-04-27T01:20:08.592Z,79.31
2019-04-27T01:21:06.889Z,79.02
2019-04-27T01:22:08.645Z,79.31
2019-04-27T01:23:06.903Z,79.02
2019-04-27T01:24:08.891Z,78.60
2019-04-27T01:25:08.677Z,78.55
2019-04-27T01:26:06.934Z,77.97
2019-04-27T01:27:08.701Z,78.55
2019-04-27T01:28:06.934Z,77.69
2019-04-27T01:29:06.938Z,77.87
2019-04-27T01:30:08.703Z,78.45
2019-04-27T01:31:06.951Z,77.97
2019-04-27T01:32:08.616Z,78.16
2019-04-27T01:33:06.975Z,77.30
2019-04-27T01:34:06.974Z,77.30
2019-04-27T01:35:08.538Z,77.50
2019-04-27T01:36:07.091Z,77.50
2019-04-27T01:37:07.047Z,77.50
2019-04-27T01:38:07.005Z,77.78
2019-04-27T01:39:08.471Z,77.01
2019-04-27T01:40:07.022Z,76.92
2019-04-27T01:41:08.666Z,76.64
2019-04-27T01:42:07.023Z,76.82
2019-04-27T01:43:09.023Z,76.45
2019-04-27T01:44:07.087Z,76.73
2019-04-27T01:45:08.555Z,76.48
2019-04-27T01:46:07.068Z,76.45
2019-04-27T01:47:08.300Z,76.64
2019-04-27T01:48:07.071Z,76.35
2019-04-27T01:49:07.083Z,76.45
2019-04-27T01:50:08.643Z,76.45
2019-04-27T01:51:07.092Z,76.54
2019-04-27T01:52:07.103Z,76.45
2019-04-27T01:53:08.853Z,76.06
2019-04-27T01:54:07.112Z,75.96
2019-04-27T01:55:08.626Z,76.20
2019-04-27T01:56:09.075Z,75.96
2019-04-27T01:57:08.012Z,75.78
2019-04-27T01:58:10.592Z,75.87
2019-04-27T01:59:08.658Z,76.54
2019-04-27T02:00:08.780Z,76.67
2019-04-27T02:01:07.207Z,75.91
2019-04-27T02:02:08.791Z,75.78
2019-04-27T02:03:08.557Z,76.00
2019-04-27T02:04:07.186Z,75.52
2019-04-27T02:05:08.931Z,75.52
2019-04-27T02:06:09.119Z,75.62
2019-04-27T02:07:08.995Z,75.71
2019-04-27T02:08:07.211Z,75.71
2019-04-27T02:09:08.486Z,75.91
2019-04-27T02:10:08.856Z,75.81
2019-04-27T02:11:07.260Z,75.91
2019-04-27T02:12:07.263Z,75.81
2019-04-27T02:13:08.783Z,75.91
2019-04-27T02:14:07.322Z,75.24
2019-04-27T02:15:08.820Z,74.66
2019-04-27T02:16:08.894Z,74.76
2019-04-27T02:17:07.433Z,75.43
2019-04-27T02:18:09.336Z,74.76
2019-04-27T02:19:09.057Z,75.05
2019-04-27T02:20:07.351Z,74.66
2019-04-27T02:21:09.027Z,74.28
2019-04-27T02:22:08.590Z,75.24
2019-04-27T02:23:08.968Z,75.05
2019-04-27T02:24:07.480Z,74.57
2019-04-27T02:25:08.940Z,74.38
2019-04-27T02:26:08.604Z,74.66
2019-04-27T02:27:08.972Z,74.57
2019-04-27T02:28:07.394Z,74.38
2019-04-27T02:29:08.786Z,74.09
2019-04-27T02:30:08.278Z,74.09
2019-04-27T02:31:09.708Z,73.90
2019-04-27T02:32:10.252Z,74.19
2019-04-27T02:33:12.189Z,73.99
2019-04-27T02:34:09.547Z,74.09
2019-04-27T02:35:09.312Z,74.57
2019-04-27T02:36:12.102Z,73.99
2019-04-27T02:37:10.003Z,73.71
2019-04-27T02:38:09.966Z,73.90
2019-04-27T02:39:09.495Z,73.99
2019-04-27T02:40:09.555Z,74.09
2019-04-27T02:41:09.794Z,73.52
2019-04-27T02:42:09.436Z,74.09
2019-04-27T02:43:07.492Z,73.80
2019-04-27T02:44:09.551Z,73.23
2019-04-27T02:45:09.646Z,73.52
2019-04-27T02:46:09.581Z,73.52
2019-04-27T02:47:09.981Z,73.71
2019-04-27T02:48:09.866Z,73.43
2019-04-27T02:49:10.298Z,73.14
2019-04-27T02:50:07.539Z,73.43
2019-04-27T02:51:09.909Z,73.04
2019-04-27T02:52:09.401Z,73.23
2019-04-27T02:53:07.590Z,73.23
2019-04-27T02:54:12.035Z,73.39
2019-04-27T02:55:09.614Z,73.52
2019-04-27T02:56:10.049Z,73.80
2019-04-27T02:57:10.079Z,73.14
2019-04-27T02:58:10.018Z,73.77
2019-04-27T02:59:09.536Z,73.48
2019-04-27T03:00:07.643Z,73.77
2019-04-27T03:01:09.849Z,73.10
2019-04-27T03:02:10.504Z,73.00
2019-04-27T03:03:09.991Z,73.96
2019-04-27T03:04:09.827Z,73.29
2019-04-27T03:05:07.641Z,73.10
2019-04-27T03:06:09.706Z,73.10
2019-04-27T03:07:07.886Z,73.10
2019-04-27T03:08:10.146Z,73.10
2019-04-27T03:09:10.210Z,73.52
2019-04-27T03:10:09.909Z,73.04
2019-04-27T03:11:09.760Z,73.14
2019-04-27T03:12:10.124Z,73.10
2019-04-27T03:13:07.702Z,72.91
2019-04-27T03:14:15.141Z,73.00
2019-04-27T03:15:10.242Z,73.19
2019-04-27T03:16:07.732Z,73.00
2019-04-27T03:17:09.783Z,73.00
2019-04-27T03:18:09.902Z,73.19
2019-04-27T03:19:14.734Z,73.61
2019-04-27T03:20:10.265Z,73.23
2019-04-27T03:21:12.707Z,72.56
2019-04-27T03:22:09.719Z,72.33
2019-04-27T03:23:09.685Z,72.28
2019-04-27T03:24:09.830Z,71.99
2019-04-27T03:25:09.858Z,72.28
2019-04-27T03:26:10.562Z,71.99
2019-04-27T03:27:09.761Z,72.28
2019-04-27T03:28:14.498Z,71.51
2019-04-27T03:29:09.780Z,71.42
2019-04-27T03:30:11.691Z,71.89
2019-04-27T03:31:12.640Z,71.67
2019-04-27T03:32:12.393Z,71.67
2019-04-27T03:33:11.336Z,71.80
2019-04-27T03:34:15.658Z,71.80
2019-04-27T03:35:12.305Z,72.24
2019-04-27T03:36:12.509Z,71.80
2019-04-27T03:37:10.333Z,72.08
2019-04-27T03:38:10.418Z,71.51
2019-04-27T03:39:09.980Z,71.89
2019-04-27T03:40:10.099Z,71.61
2019-04-27T03:41:09.553Z,71.51
2019-04-27T03:42:10.166Z,71.51
2019-04-27T03:43:09.389Z,71.47
2019-04-27T03:44:09.404Z,71.76
2019-04-27T03:45:10.462Z,71.28
2019-04-27T03:46:10.125Z,71.76
2019-04-27T03:47:12.289Z,71.76
2019-04-27T03:48:10.179Z,71.47
2019-04-27T03:49:09.779Z,71.57
2019-04-27T03:50:10.335Z,71.47
2019-04-27T03:51:10.011Z,71.47
2019-04-27T03:52:09.669Z,72.53
2019-04-27T03:53:10.148Z,72.05
2019-04-27T03:54:10.403Z,71.57
2019-04-27T03:55:10.154Z,72.05
2019-04-27T03:56:10.161Z,71.57
2019-04-27T03:57:09.941Z,71.57
2019-04-27T03:58:11.793Z,71.86
2019-04-27T03:59:10.168Z,72.14
2019-04-27T04:00:10.108Z,72.43
2019-04-27T04:01:10.279Z,72.14
2019-04-27T04:02:10.152Z,72.14
2019-04-27T04:03:10.496Z,72.14
2019-04-27T04:04:10.348Z,72.05
2019-04-27T04:05:09.854Z,72.05
2019-04-27T04:06:10.522Z,72.24
2019-04-27T04:07:09.567Z,71.95
2019-04-27T04:08:10.441Z,72.33
2019-04-27T04:09:10.200Z,72.53
2019-04-27T04:10:10.375Z,71.95
2019-04-27T04:11:10.293Z,72.33
2019-04-27T04:12:09.552Z,72.43
2019-04-27T04:13:10.515Z,72.62
2019-04-27T04:14:10.139Z,72.33
2019-04-27T04:15:09.971Z,72.81
2019-04-27T04:16:10.703Z,72.53
2019-04-27T04:17:09.847Z,72.62
2019-04-27T04:18:09.826Z,72.91
2019-04-27T04:19:09.756Z,72.43
2019-04-27T04:20:10.188Z,73.00
2019-04-27T04:21:09.550Z,72.81
2019-04-27T04:22:10.228Z,72.72
2019-04-27T04:23:10.676Z,72.53
2019-04-27T04:24:08.973Z,72.43
2019-04-27T04:25:10.466Z,73.10
2019-04-27T04:26:09.837Z,73.19
2019-04-27T04:27:09.911Z,73.86
2019-04-27T04:28:09.401Z,72.81
2019-04-27T04:29:10.273Z,73.04
2019-04-27T04:30:11.802Z,73.00
2019-04-27T04:31:12.851Z,72.91
2019-04-27T04:32:10.410Z,72.24
2019-04-27T04:33:10.140Z,72.28
2019-04-27T04:34:09.709Z,72.14
2019-04-27T04:35:10.314Z,72.08
2019-04-27T04:36:10.076Z,72.14
2019-04-27T04:37:09.276Z,71.99
2019-04-27T04:38:10.332Z,72.56
2019-04-27T04:39:11.964Z,72.37
2019-04-27T04:40:09.812Z,72.47
2019-04-27T04:41:09.562Z,72.28
2019-04-27T04:42:10.165Z,72.85
2019-04-27T04:43:10.780Z,72.94
2019-04-27T04:44:12.192Z,72.28
2019-04-27T04:45:10.500Z,72.47
2019-04-27T04:46:12.278Z,72.28
2019-04-27T04:47:10.378Z,72.56
2019-04-27T04:48:09.879Z,72.28
2019-04-27T04:49:09.457Z,71.80
2019-04-27T04:50:14.422Z,72.66
2019-04-27T04:51:10.058Z,72.47
2019-04-27T04:52:09.665Z,72.18
2019-04-27T04:53:12.233Z,72.08
2019-04-27T04:54:09.524Z,72.37
2019-04-27T04:55:10.192Z,71.99
2019-04-27T04:56:08.567Z,72.66
2019-04-27T04:57:09.292Z,72.66
2019-04-27T04:58:09.349Z,72.18
2019-04-27T04:59:10.098Z,71.99
2019-04-27T05:00:09.874Z,71.70
2019-04-27T05:01:09.904Z,72.08
2019-04-27T05:02:10.528Z,72.18
2019-04-27T05:03:09.386Z,72.56
2019-04-27T05:04:09.102Z,72.28
2019-04-27T05:05:09.372Z,71.70
2019-04-27T05:06:08.886Z,71.99
2019-04-27T05:07:09.212Z,71.99
2019-04-27T05:08:09.095Z,71.61
2019-04-27T05:09:09.289Z,72.47
2019-04-27T05:10:09.176Z,72.08
2019-04-27T05:11:09.680Z,71.61
2019-04-27T05:12:08.948Z,71.99
2019-04-27T05:13:09.304Z,71.80
2019-04-27T05:14:09.852Z,71.42
2019-04-27T05:15:09.114Z,71.73
2019-04-27T05:16:08.992Z,71.42
2019-04-27T05:17:09.494Z,71.42
2019-04-27T05:18:09.073Z,71.70
2019-04-27T05:19:11.127Z,71.55
2019-04-27T05:20:12.617Z,71.70
2019-04-27T05:21:09.035Z,71.73
2019-04-27T05:22:09.368Z,71.83
2019-04-27T05:23:09.600Z,71.16
2019-04-27T05:24:09.398Z,71.64
2019-04-27T05:25:09.303Z,71.26
2019-04-27T05:26:09.086Z,71.07
2019-04-27T05:27:09.222Z,70.68
2019-04-27T05:28:09.728Z,71.07
2019-04-27T05:29:09.221Z,70.97
2019-04-27T05:30:09.339Z,71.26
2019-04-27T05:31:09.128Z,71.26
2019-04-27T05:32:09.210Z,71.07
2019-04-27T05:33:09.062Z,71.16
2019-04-27T05:34:09.538Z,70.87
2019-04-27T05:35:08.884Z,71.16
2019-04-27T05:36:09.401Z,70.87
2019-04-27T05:37:09.031Z,70.68
2019-04-27T05:38:13.134Z,71.07
2019-04-27T05:39:10.036Z,71.83
2019-04-27T05:40:09.201Z,71.36
2019-04-27T05:41:08.781Z,71.07
2019-04-27T05:42:12.547Z,71.39
2019-04-27T05:43:09.191Z,70.91
2019-04-27T05:44:12.741Z,71.11
2019-04-27T05:45:09.290Z,71.39
2019-04-27T05:46:10.942Z,71.39
2019-04-27T05:47:09.983Z,70.91
2019-04-27T05:48:09.423Z,70.81
2019-04-27T05:49:09.552Z,70.53
2019-04-27T05:50:09.109Z,70.24
2019-04-27T05:51:09.204Z,69.95
2019-04-27T05:52:14.385Z,69.57
2019-04-27T05:53:09.574Z,69.29
2019-04-27T05:54:09.144Z,69.38
2019-04-27T05:55:10.402Z,69.42
2019-04-27T05:56:09.405Z,69.00
2019-04-27T05:57:09.474Z,68.84
2019-04-27T05:58:09.342Z,68.46
2019-04-27T05:59:09.264Z,68.74
2019-04-27T06:00:09.272Z,68.74
2019-04-27T06:01:10.877Z,68.46
2019-04-27T06:02:09.468Z,68.55
2019-04-27T06:03:09.125Z,68.74
2019-04-27T06:04:09.189Z,68.46
2019-04-27T06:05:08.965Z,68.36
2019-04-27T06:06:09.699Z,67.88
2019-04-27T06:07:11.394Z,67.79
2019-04-27T06:08:09.001Z,67.79
2019-04-27T06:09:09.488Z,67.41
2019-04-27T06:10:09.563Z,67.60
2019-04-27T06:11:09.381Z,67.11
2019-04-27T06:12:09.071Z,67.69
2019-04-27T06:13:10.630Z,67.60
2019-04-27T06:14:09.672Z,67.60
2019-04-27T06:15:09.757Z,66.67
2019-04-27T06:16:09.547Z,67.34
2019-04-27T06:17:09.519Z,66.67
2019-04-27T06:18:10.052Z,66.67
2019-04-27T06:19:09.610Z,67.15
2019-04-27T06:20:11.314Z,66.38
2019-04-27T06:21:09.784Z,66.86
2019-04-27T06:22:09.651Z,66.29
2019-04-27T06:23:09.200Z,65.33
2019-04-27T06:24:09.388Z,65.14
2019-04-27T06:25:11.863Z,64.85
2019-04-27T06:26:11.684Z,64.85
2019-04-27T06:27:09.486Z,64.18
2019-04-27T06:28:09.293Z,63.80
2019-04-27T06:29:09.569Z,63.73
2019-04-27T06:30:09.379Z,63.92
2019-04-27T06:31:09.176Z,63.73
2019-04-27T06:32:10.895Z,63.45
2019-04-27T06:33:09.456Z,63.26
2019-04-27T06:34:09.821Z,63.45
2019-04-27T06:35:12.238Z,62.96
2019-04-27T06:36:10.040Z,63.09
2019-04-27T06:37:09.618Z,63.38
2019-04-27T06:38:11.408Z,63.38
2019-04-27T06:39:09.749Z,62.93
2019-04-27T06:40:09.794Z,62.45
2019-04-27T06:41:09.987Z,62.55
2019-04-27T06:42:16.679Z,62.26
2019-04-27T06:43:09.339Z,62.26
2019-04-27T06:44:11.302Z,61.78
2019-04-27T06:45:09.899Z,61.78
2019-04-27T06:46:09.366Z,61.78
2019-04-27T06:47:09.318Z,61.78
2019-04-27T06:48:09.690Z,61.98
2019-04-27T06:49:10.956Z,62.26
2019-04-27T06:50:09.386Z,62.01
2019-04-27T06:51:09.766Z,62.16
2019-04-27T06:52:09.396Z,62.19
2019-04-27T06:53:09.418Z,61.69
2019-04-27T06:54:09.438Z,61.52
2019-04-27T06:55:09.520Z,61.81
2019-04-27T06:56:09.599Z,61.52
2019-04-27T06:57:09.464Z,61.72
2019-04-27T06:58:09.446Z,61.81
2019-04-27T06:59:09.459Z,62.10
2019-04-27T07:00:09.506Z,62.19
2019-04-27T07:01:11.087Z,61.52
2019-04-27T07:02:09.528Z,61.81
2019-04-27T07:03:10.679Z,62.01
2019-04-27T07:04:10.906Z,61.72
2019-04-27T07:05:09.562Z,62.10
2019-04-27T07:06:09.500Z,61.81
2019-04-27T07:07:09.825Z,61.91
2019-04-27T07:08:09.564Z,61.81
2019-04-27T07:09:09.778Z,62.13
2019-04-27T07:10:09.553Z,62.23
2019-04-27T07:11:11.499Z,61.65
2019-04-27T07:12:09.568Z,61.36
2019-04-27T07:13:09.752Z,61.65
2019-04-27T07:14:11.570Z,61.75
2019-04-27T07:15:09.596Z,61.94
2019-04-27T07:16:09.703Z,60.98
2019-04-27T07:17:09.618Z,61.08
2019-04-27T07:18:09.759Z,60.88
2019-04-27T07:19:09.679Z,60.98
2019-04-27T07:20:09.641Z,60.78
2019-04-27T07:21:16.954Z,61.17
2019-04-27T07:22:11.443Z,60.78
2019-04-27T07:23:09.689Z,60.78
2019-04-27T07:24:09.708Z,60.88
2019-04-27T07:25:09.701Z,60.40
2019-04-27T07:26:09.742Z,61.08
2019-04-27T07:27:09.717Z,60.31
2019-04-27T07:28:09.744Z,60.40
2019-04-27T07:29:09.858Z,60.60
2019-04-27T07:30:11.803Z,59.95
2019-04-27T07:31:09.769Z,59.38
2019-04-27T07:32:09.783Z,58.89
2019-04-27T07:33:09.764Z,58.70
2019-04-27T07:34:09.843Z,59.09
2019-04-27T07:35:09.965Z,58.89
2019-04-27T07:36:09.814Z,58.89
2019-04-27T07:37:11.185Z,58.70
2019-04-27T07:38:10.012Z,58.80
2019-04-27T07:39:11.577Z,58.89
2019-04-27T07:40:09.924Z,58.54
2019-04-27T07:41:09.932Z,58.45
2019-04-27T07:42:09.872Z,58.73
2019-04-27T07:43:09.894Z,58.83
2019-04-27T07:44:10.211Z,58.92
2019-04-27T07:45:11.315Z,58.73
2019-04-27T07:46:10.013Z,58.64
2019-04-27T07:47:09.974Z,57.58
2019-04-27T07:48:09.960Z,57.97
2019-04-27T07:49:09.934Z,56.91
2019-04-27T07:50:09.951Z,57.22
2019-04-27T07:51:09.983Z,56.45
2019-04-27T07:52:10.010Z,56.74
2019-04-27T07:53:09.978Z,56.74
2019-04-27T07:54:09.989Z,57.22
2019-04-27T07:55:10.039Z,56.65
2019-04-27T07:56:10.818Z,56.55
2019-04-27T07:57:10.034Z,56.07
2019-04-27T07:58:10.082Z,56.74
2019-04-27T07:59:10.072Z,56.10
2019-04-27T08:00:10.053Z,56.38
2019-04-27T08:01:10.094Z,55.81
2019-04-27T08:02:11.129Z,56.00
2019-04-27T08:03:10.151Z,56.10
2019-04-27T08:04:10.096Z,56.10
2019-04-27T08:05:10.096Z,56.38
2019-04-27T08:06:10.850Z,56.10
2019-04-27T08:07:10.127Z,56.00
2019-04-27T08:08:10.218Z,55.33
2019-04-27T08:09:10.193Z,54.85
2019-04-27T08:10:10.166Z,54.85
2019-04-27T08:11:11.346Z,55.04
2019-04-27T08:12:10.918Z,54.87
2019-04-27T08:13:10.206Z,54.78
2019-04-27T08:14:10.238Z,54.78
2019-04-27T08:15:10.246Z,54.97
2019-04-27T08:16:10.215Z,54.39
2019-04-27T08:17:10.236Z,54.39
2019-04-27T08:18:11.237Z,54.87
2019-04-27T08:19:10.334Z,54.30
2019-04-27T08:20:10.284Z,54.39
2019-04-27T08:21:10.285Z,54.87
2019-04-27T08:22:10.299Z,54.78
2019-04-27T08:23:10.308Z,54.20
2019-04-27T08:24:11.217Z,53.65
2019-04-27T08:25:10.421Z,53.33
2019-04-27T08:26:10.327Z,54.00
2019-04-27T08:27:10.381Z,53.43
2019-04-27T08:28:10.525Z,53.81
2019-04-27T08:29:10.363Z,53.55
2019-04-27T08:30:10.415Z,53.33
2019-04-27T08:31:10.430Z,53.53
2019-04-27T08:32:10.449Z,53.72
2019-04-27T08:33:10.399Z,53.45
2019-04-27T08:34:10.440Z,53.74
2019-04-27T08:35:10.447Z,53.84
2019-04-27T08:36:10.475Z,53.55
2019-04-27T08:37:10.477Z,54.03
2019-04-27T08:38:10.503Z,54.13
2019-04-27T08:39:10.477Z,53.07
2019-04-27T08:40:10.546Z,53.84
2019-04-27T08:41:10.555Z,53.07
2019-04-27T08:42:10.535Z,53.29
2019-04-27T08:43:10.548Z,53.77
2019-04-27T08:44:10.562Z,53.67
2019-04-27T08:45:10.558Z,53.19
2019-04-27T08:46:10.924Z,52.81
2019-04-27T08:47:10.719Z,51.75
2019-04-27T08:48:10.820Z,51.75
2019-04-27T08:49:10.795Z,52.04
2019-04-27T08:50:11.181Z,52.23
2019-04-27T08:51:12.888Z,51.84
2019-04-27T08:52:11.090Z,50.90
2019-04-27T08:53:11.141Z,50.78
2019-04-27T08:54:10.944Z,50.62
2019-04-27T08:55:10.734Z,50.13
2019-04-27T08:56:11.090Z,50.04
2019-04-27T08:57:11.615Z,49.63
2019-04-27T08:58:10.853Z,50.21
2019-04-27T08:59:10.896Z,50.11
2019-04-27T09:00:10.925Z,50.11
2019-04-27T09:01:10.811Z,50.30
2019-04-27T09:02:10.873Z,50.11
2019-04-27T09:03:11.640Z,50.21
2019-04-27T09:04:11.364Z,50.40
2019-04-27T09:05:10.876Z,49.91
2019-04-27T09:06:10.953Z,50.11
2019-04-27T09:07:11.130Z,50.01
2019-04-27T09:08:10.817Z,50.30
2019-04-27T09:09:10.883Z,50.11
2019-04-27T09:10:11.032Z,50.40
2019-04-27T09:11:10.867Z,50.40
2019-04-27T09:12:10.865Z,50.49
2019-04-27T09:13:10.868Z,50.66
2019-04-27T09:14:10.896Z,49.82
2019-04-27T09:15:10.884Z,49.53
2019-04-27T09:16:11.164Z,49.53
2019-04-27T09:17:10.993Z,49.91
2019-04-27T09:18:10.914Z,49.24
2019-04-27T09:19:10.994Z,48.97
2019-04-27T09:20:11.072Z,47.41
2019-04-27T09:21:10.955Z,47.14
2019-04-27T09:22:16.074Z,47.53
2019-04-27T09:23:10.982Z,47.53
2019-04-27T09:24:11.011Z,48.30
2019-04-27T09:25:11.025Z,47.94
2019-04-27T09:26:11.201Z,47.92
2019-04-27T09:27:11.035Z,46.18
2019-04-27T09:28:11.039Z,46.66
2019-04-27T09:29:11.051Z,46.95
2019-04-27T09:30:11.112Z,47.27
2019-04-27T09:31:11.107Z,47.24
2019-04-27T09:32:11.246Z,47.27
2019-04-27T09:33:11.192Z,46.76
2019-04-27T09:34:12.669Z,47.24
2019-04-27T09:35:11.152Z,47.14
2019-04-27T09:36:11.138Z,46.49
2019-04-27T09:37:11.166Z,46.59
2019-04-27T09:38:11.190Z,46.20
2019-04-27T09:39:11.187Z,45.04
2019-04-27T09:40:11.234Z,45.07
2019-04-27T09:41:11.330Z,43.72
2019-04-27T09:42:11.258Z,43.52
2019-04-27T09:43:11.236Z,44.29
2019-04-27T09:44:11.233Z,44.39
2019-04-27T09:45:11.304Z,44.20
2019-04-27T09:46:11.259Z,44.29
2019-04-27T09:47:11.280Z,43.81
2019-04-27T09:48:11.275Z,43.91
2019-04-27T09:49:12.192Z,43.52
2019-04-27T09:50:11.318Z,42.66
2019-04-27T09:51:11.660Z,43.43
2019-04-27T09:52:23.400Z,44.20
2019-04-27T09:53:11.394Z,44.01
2019-04-27T09:54:11.434Z,43.81
2019-04-27T09:55:11.593Z,43.81
2019-04-27T09:56:11.388Z,43.14
2019-04-27T09:57:11.484Z,43.52
2019-04-27T09:58:11.540Z,43.35
2019-04-27T09:59:11.419Z,43.54
2019-04-27T10:00:11.459Z,42.87
2019-04-27T10:01:11.446Z,42.29
2019-04-27T10:02:11.487Z,41.91
2019-04-27T10:03:11.877Z,41.61
2019-04-27T10:04:11.515Z,41.42
2019-04-27T10:05:11.503Z,42.10
2019-04-27T10:06:11.499Z,41.52
2019-04-27T10:07:11.553Z,42.00
2019-04-27T10:08:11.534Z,42.00
2019-04-27T10:09:11.548Z,42.29
2019-04-27T10:10:11.581Z,42.89
2019-04-27T10:11:11.618Z,41.83
2019-04-27T10:12:11.602Z,41.83
2019-04-27T10:13:11.590Z,42.21
2019-04-27T10:14:11.652Z,41.35
2019-04-27T10:15:11.662Z,41.35
2019-04-27T10:16:11.626Z,41.63
2019-04-27T10:17:11.638Z,41.54
2019-04-27T10:18:11.671Z,40.67
2019-04-27T10:19:11.893Z,40.57
2019-04-27T10:20:11.691Z,41.33
2019-04-27T10:21:11.866Z,41.05
2019-04-27T10:22:11.788Z,40.26
2019-04-27T10:23:11.760Z,39.59
2019-04-27T10:24:11.745Z,40.07
2019-04-27T10:25:11.740Z,40.28
2019-04-27T10:26:11.776Z,40.38
2019-04-27T10:27:11.782Z,40.19
2019-04-27T10:28:11.868Z,39.80
2019-04-27T10:29:11.868Z,39.80
2019-04-27T10:30:11.815Z,40.19
2019-04-27T10:31:11.902Z,40.28
2019-04-27T10:32:11.841Z,40.19
2019-04-27T10:33:11.882Z,40.30
2019-04-27T10:34:11.912Z,40.78
2019-04-27T10:35:11.885Z,40.50
2019-04-27T10:36:11.892Z,40.19
2019-04-27T10:37:11.941Z,40.57
2019-04-27T10:38:11.918Z,40.77
2019-04-27T10:39:13.379Z,40.69
2019-04-27T10:40:11.954Z,40.69
2019-04-27T10:41:12.026Z,40.78
2019-04-27T10:42:11.967Z,40.59
2019-04-27T10:43:11.975Z,39.94
2019-04-27T10:44:12.019Z,39.74
2019-04-27T10:45:12.060Z,39.82
2019-04-27T10:46:12.011Z,39.84
2019-04-27T10:47:12.044Z,39.06
2019-04-27T10:48:12.079Z,38.78
2019-04-27T10:49:12.132Z,38.87
2019-04-27T10:50:12.083Z,38.39
2019-04-27T10:51:12.095Z,38.29
2019-04-27T10:52:12.159Z,38.39
2019-04-27T10:53:12.191Z,38.48
2019-04-27T10:54:12.196Z,38.58
2019-04-27T10:55:12.137Z,38.89
2019-04-27T10:56:12.180Z,38.70
2019-04-27T10:57:12.199Z,39.28
2019-04-27T10:58:12.199Z,38.48
2019-04-27T10:59:16.455Z,38.21
2019-04-27T11:00:12.200Z,37.82
2019-04-27T11:01:12.373Z,37.04
2019-04-27T11:02:12.219Z,37.32
2019-04-27T11:03:12.271Z,36.76
2019-04-27T11:04:12.257Z,38.21
2019-04-27T11:05:12.274Z,38.79
2019-04-27T11:06:12.307Z,38.02
2019-04-27T11:07:12.312Z,38.60
2019-04-27T11:08:12.368Z,38.12
2019-04-27T11:09:12.322Z,38.70
2019-04-27T11:10:12.338Z,38.21
2019-04-27T11:11:12.497Z,38.10
2019-04-27T11:12:12.349Z,38.31
2019-04-27T11:13:12.445Z,38.39
2019-04-27T11:14:12.662Z,38.60
2019-04-27T11:15:12.479Z,38.41
2019-04-27T11:16:12.404Z,38.29
2019-04-27T11:17:12.449Z,38.00
2019-04-27T11:18:12.472Z,36.46
2019-04-27T11:19:12.461Z,36.36
2019-04-27T11:20:12.465Z,36.07
2019-04-27T11:21:12.495Z,36.46
2019-04-27T11:22:12.515Z,36.05
2019-04-27T11:23:12.559Z,35.57
2019-04-27T11:24:12.531Z,35.37
2019-04-27T11:25:12.531Z,36.05
2019-04-27T11:26:12.558Z,36.24
2019-04-27T11:27:14.050Z,36.05
2019-04-27T11:28:13.021Z,36.34
2019-04-27T11:29:12.583Z,36.15
2019-04-27T11:30:12.595Z,36.53
2019-04-27T11:31:12.606Z,36.44
2019-04-27T11:32:12.871Z,37.12
2019-04-27T11:33:12.809Z,37.21
2019-04-27T11:34:12.662Z,37.02
2019-04-27T11:35:12.664Z,35.58
2019-04-27T11:36:14.950Z,35.66
2019-04-27T11:37:12.689Z,36.05
2019-04-27T11:38:12.730Z,35.76
2019-04-27T11:39:12.715Z,35.86
2019-04-27T11:40:12.770Z,35.66
2019-04-27T11:41:12.772Z,35.37
2019-04-27T11:42:12.760Z,35.57
2019-04-27T11:43:12.868Z,35.26
2019-04-27T11:44:12.842Z,35.55
2019-04-27T11:45:12.819Z,35.55
2019-04-27T11:46:12.874Z,35.36
2019-04-27T11:47:12.837Z,35.63
2019-04-27T11:48:12.858Z,35.94
2019-04-27T11:49:12.848Z,36.21
2019-04-27T11:50:12.880Z,36.79
2019-04-27T11:51:12.885Z,36.79
2019-04-27T11:52:13.234Z,36.69
2019-04-27T11:53:22.103Z,36.88
2019-04-27T11:54:12.924Z,36.69
2019-04-27T11:55:12.954Z,36.77
2019-04-27T11:56:12.951Z,36.79
2019-04-27T11:57:12.971Z,36.69
2019-04-27T11:58:12.975Z,37.06
2019-04-27T11:59:12.980Z,37.27
2019-04-27T12:00:13.011Z,37.75
2019-04-27T12:01:13.026Z,38.14
2019-04-27T12:02:13.043Z,38.23
2019-04-27T12:03:13.047Z,38.53
2019-04-27T12:04:13.072Z,38.53
2019-04-27T12:05:13.184Z,39.01
2019-04-27T12:06:13.225Z,39.01
2019-04-27T12:07:13.079Z,39.11
2019-04-27T12:08:13.134Z,38.71
2019-04-27T12:09:13.392Z,38.64
2019-04-27T12:10:13.660Z,37.85
2019-04-27T12:11:13.109Z,36.98
2019-04-27T12:12:18.230Z,36.30
2019-04-27T12:13:13.171Z,36.50
2019-04-27T12:14:13.388Z,36.21
2019-04-27T12:15:13.218Z,36.11
2019-04-27T12:16:13.326Z,36.21
2019-04-27T12:17:13.313Z,37.75
2019-04-27T12:18:14.339Z,38.53
2019-04-27T12:19:13.205Z,38.71
2019-04-27T12:20:13.231Z,38.71
2019-04-27T12:21:13.289Z,37.75
2019-04-27T12:22:13.251Z,37.27
2019-04-27T12:23:13.258Z,38.33
2019-04-27T12:24:13.303Z,38.71
2019-04-27T12:25:13.300Z,39.18
2019-04-27T12:26:13.574Z,38.70
2019-04-27T12:27:13.324Z,39.18
2019-04-27T12:28:13.364Z,38.89
2019-04-27T12:29:13.336Z,38.79
2019-04-27T12:30:13.347Z,38.58
2019-04-27T12:31:13.479Z,38.39
2019-04-27T12:32:13.415Z,38.29
2019-04-27T12:33:13.412Z,38.39
2019-04-27T12:34:13.399Z,38.68
2019-04-27T12:35:13.408Z,39.06
2019-04-27T12:36:13.432Z,39.06
2019-04-27T12:37:13.452Z,38.97
2019-04-27T12:38:13.478Z,38.46
2019-04-27T12:39:13.516Z,38.76
2019-04-27T12:40:13.497Z,39.34
2019-04-27T12:41:15.460Z,38.76
2019-04-27T12:42:13.510Z,38.66
2019-04-27T12:43:13.489Z,38.66
2019-04-27T12:44:13.525Z,38.85
2019-04-27T12:45:13.552Z,38.74
2019-04-27T12:46:13.735Z,39.03
2019-04-27T12:47:13.577Z,39.03
2019-04-27T12:48:13.650Z,39.61
2019-04-27T12:49:13.570Z,39.79
2019-04-27T12:50:13.580Z,39.99
2019-04-27T12:51:13.584Z,40.09
2019-04-27T12:52:15.823Z,39.51